Harbine, Nebraska
Current Conditions -  °F | °C
As of 1:35 PM on Friday 28 Nov 2014 (Local Time) from KBIE Reporting Station
Clear Clear  
Wind Chill: 56°   Ceiling: Unl
Heat Index: 56°   Visibility: 10mi
Dew Point: 32°   Wind: 13mph
Humidity: 39%   Direction: 200°SSW
Pressure: 29.74"   Gusts: NA
Location:  40.219°N, 97.0292°W
Report Text: KBIE 281935Z AUTO 20011KT 10SM CLR 14/00 A2974 RMK AO2 T01360000
Loading
Personal Weather Stations






























Interactive Weather Map New forecast layout! Learn more

10-Day Weather Forecast

Advertisements
Track Severe Weather on mobile